Time;durP1;ratioP1;P1;durP2;ratioP2;P2;SDS_P1;SDS_P2;PMS_P1;PMS_P2;Temp;Humidity;BMP_temperature;BMP_pressure;BME280_temperature;BME280_humidity;BME280_pressure;Samples;Min_cycle;Max_cycle;Signal;HPM_P1;HPM_P2
2021/06/27 00:01:32;;;;;;;3.65;1.95;;;;;;;20.94;70.52;100027.84;1711557;83;20971;-40
2021/06/27 00:03:59;;;;;;;5.95;2.37;;;;;;;20.93;71.10;100043.72;1713475;82;21033;-41
2021/06/27 00:06:25;;;;;;;7.25;2.27;;;;;;;20.92;71.50;100054.73;1711948;82;20941;-40
2021/06/27 00:08:53;;;;;;;8.25;2.33;;;;;;;20.92;71.45;100056.05;1711314;82;20963;-40
2021/06/27 00:11:24;;;;;;;4.30;1.98;;;;;;;20.90;71.84;100043.47;1713743;83;21145;-40
2021/06/27 00:13:50;;;;;;;5.40;2.12;;;;;;;20.89;71.87;100035.22;1714017;83;21498;-40
2021/06/27 00:16:18;;;;;;;4.50;2.40;;;;;;;20.88;71.68;100041.42;1712239;82;20988;-40
2021/06/27 00:18:45;;;;;;;7.05;2.20;;;;;;;20.87;72.20;100048.95;1714479;82;21042;-40
2021/06/27 00:21:12;;;;;;;2.55;1.95;;;;;;;20.86;72.18;100057.78;1711500;83;21062;-40
2021/06/27 00:23:42;;;;;;;7.67;2.00;;;;;;;20.86;72.26;100048.58;1716044;83;21110;-40
2021/06/27 00:26:11;;;;;;;5.90;2.20;;;;;;;20.85;71.84;100033.75;1715665;82;20944;-40
2021/06/27 00:28:38;;;;;;;10.75;2.62;;;;;;;20.84;71.75;100021.55;1713294;83;20953;-40
2021/06/27 00:31:05;;;;;;;6.28;2.37;;;;;;;20.80;71.74;100023.53;1710321;83;20971;-39
2021/06/27 00:33:32;;;;;;;6.30;2.80;;;;;;;20.76;71.96;100023.80;1714543;82;20924;-39
2021/06/27 00:36:00;;;;;;;13.15;3.10;;;;;;;20.73;72.90;100024.88;1714292;82;21536;-40
2021/06/27 00:38:26;;;;;;;7.58;2.70;;;;;;;20.71;73.42;100020.66;1713056;82;21030;-40
2021/06/27 00:40:53;;;;;;;7.53;2.87;;;;;;;20.67;73.18;100018.23;1715699;82;20972;-40
2021/06/27 00:43:20;;;;;;;6.55;2.80;;;;;;;20.65;73.46;100010.07;1711193;83;21488;-40
2021/06/27 00:45:46;;;;;;;7.62;2.60;;;;;;;20.59;73.18;99999.52;1714114;83;21492;-40
2021/06/27 00:48:13;;;;;;;12.18;2.33;;;;;;;20.54;73.23;99997.65;1713207;82;21786;-40
2021/06/27 00:50:43;;;;;;;5.70;2.47;;;;;;;20.51;73.61;100001.34;1714486;82;22321;-41
2021/06/27 00:53:11;;;;;;;7.15;2.85;;;;;;;20.48;74.51;100003.33;1714636;82;21525;-40
2021/06/27 00:55:38;;;;;;;6.40;2.87;;;;;;;20.44;74.73;100009.25;1710829;83;20975;-39
2021/06/27 00:58:04;;;;;;;9.85;2.70;;;;;;;20.41;74.95;99996.81;1712961;83;21030;-40
2021/06/27 01:00:35;;;;;;;8.83;2.60;;;;;;;20.39;74.91;99995.59;1712606;82;21162;-39
2021/06/27 01:03:02;;;;;;;7.03;2.40;;;;;;;20.36;74.74;99995.34;1712893;82;20964;-39
2021/06/27 01:05:33;;;;;;;5.37;2.52;;;;;;;20.33;74.97;100002.08;1713446;82;20937;-39
2021/06/27 01:07:59;;;;;;;9.33;2.30;;;;;;;20.30;75.03;100015.92;1713466;83;21489;-40
2021/06/27 01:10:26;;;;;;;3.20;1.92;;;;;;;20.25;75.39;100020.16;1711965;83;21506;-40
2021/06/27 01:12:52;;;;;;;5.75;2.17;;;;;;;20.21;75.74;100014.28;1712760;82;21096;-40
2021/06/27 01:15:19;;;;;;;9.65;2.52;;;;;;;20.19;76.19;100014.00;1713699;82;20988;-39
2021/06/27 01:17:49;;;;;;;3.58;1.60;;;;;;;20.16;76.22;100009.78;1712306;83;21154;-39
2021/06/27 01:20:28;;;;;;;7.90;2.52;;;;;;;20.14;76.27;100016.09;1713110;83;21027;-39
2021/06/27 01:22:55;;;;;;;8.10;2.40;;;;;;;20.12;76.31;100019.30;1710274;82;21575;-39
2021/06/27 01:25:34;;;;;;;6.67;2.55;;;;;;;20.10;76.46;100012.81;1712263;83;21149;-39
2021/06/27 01:28:02;;;;;;;10.82;2.90;;;;;;;20.08;77.03;100018.64;1713741;83;21157;-39
2021/06/27 01:30:28;;;;;;;4.62;2.33;;;;;;;20.06;77.69;100027.09;1714083;83;21528;-39
2021/06/27 01:32:59;;;;;;;5.25;2.60;;;;;;;20.03;77.90;100026.81;1714293;83;21095;-39
2021/06/27 01:35:26;;;;;;;7.87;2.33;;;;;;;20.03;78.15;100032.06;1713581;82;21027;-39
2021/06/27 01:37:55;;;;;;;5.75;2.20;;;;;;;20.01;78.18;100033.13;1712599;82;21156;-39
2021/06/27 01:40:23;;;;;;;3.10;2.27;;;;;;;20.00;78.16;100036.21;1711665;82;20912;-40
2021/06/27 01:42:49;;;;;;;9.25;2.45;;;;;;;19.99;78.19;100027.96;1707479;82;21852;-39
2021/06/27 01:45:21;;;;;;;7.87;2.08;;;;;;;19.97;78.27;100053.97;1713460;82;21519;-39
2021/06/27 01:47:58;;;;;;;3.58;2.35;;;;;;;19.96;78.40;100039.98;1712196;81;20994;-39
2021/06/27 01:50:25;;;;;;;6.20;2.67;;;;;;;19.93;78.58;100041.01;1711280;82;21223;-39
2021/06/27 01:52:53;;;;;;;4.80;2.08;;;;;;;19.93;78.70;100047.58;1714066;82;21096;-39
2021/06/27 01:55:19;;;;;;;3.77;2.33;;;;;;;19.92;78.74;100052.45;1710017;82;21102;-39
2021/06/27 01:57:45;;;;;;;4.03;1.87;;;;;;;19.93;78.94;100052.00;1715672;82;21042;-39
2021/06/27 02:00:14;;;;;;;4.95;2.00;;;;;;;19.93;79.10;100054.63;1712840;82;21110;-40
2021/06/27 02:02:40;;;;;;;6.33;2.35;;;;;;;19.91;79.26;100040.75;1712855;82;21753;-40
2021/06/27 02:05:08;;;;;;;4.05;2.20;;;;;;;19.91;79.35;100038.13;1711172;82;20987;-39
2021/06/27 02:07:39;;;;;;;4.67;2.00;;;;;;;19.90;79.64;100031.98;1713822;83;20987;-40
2021/06/27 02:10:08;;;;;;;6.12;2.47;;;;;;;19.87;80.05;100049.75;1712583;83;20980;-39
2021/06/27 02:12:35;;;;;;;6.45;2.30;;;;;;;19.87;80.11;100048.43;1712726;83;20959;-39
2021/06/27 02:15:05;;;;;;;4.40;2.15;;;;;;;19.85;80.34;100046.38;1713365;82;21835;-39
2021/06/27 02:17:34;;;;;;;8.28;2.37;;;;;;;19.85;80.42;100055.08;1712457;83;20896;-39
2021/06/27 02:20:05;;;;;;;4.30;1.70;;;;;;;19.85;80.83;100056.39;1714284;82;21560;-39
2021/06/27 02:22:31;;;;;;;3.45;2.27;;;;;;;19.84;81.07;100059.13;1713448;83;21038;-39
2021/06/27 02:24:58;;;;;;;7.37;1.87;;;;;;;19.83;80.95;100055.66;1714892;82;21019;-40
2021/06/27 02:27:24;;;;;;;8.53;2.17;;;;;;;19.85;80.91;100051.14;1712346;83;21886;-39
2021/06/27 02:29:50;;;;;;;8.08;2.50;;;;;;;19.85;80.91;100049.83;1712630;82;21540;-40
2021/06/27 02:32:17;;;;;;;5.60;2.25;;;;;;;19.88;80.88;100057.99;1694736;83;21606;-39
2021/06/27 02:34:43;;;;;;;7.90;2.50;;;;;;;19.90;80.91;100060.05;1713301;82;21070;-39
2021/06/27 02:37:10;;;;;;;6.20;2.30;;;;;;;19.91;80.94;100057.83;1712718;82;21511;-39
2021/06/27 02:39:38;;;;;;;5.78;2.20;;;;;;;19.91;81.41;100055.20;1713055;83;21105;-39
2021/06/27 02:42:06;;;;;;;6.42;1.90;;;;;;;19.91;81.64;100057.83;1712534;83;21038;-39
2021/06/27 02:44:33;;;;;;;13.80;2.90;;;;;;;19.94;81.89;100058.94;1714523;82;20995;-39
2021/06/27 02:46:59;;;;;;;4.40;2.52;;;;;;;19.98;82.01;100056.48;1713503;82;21064;-39
2021/06/27 02:49:26;;;;;;;5.50;2.40;;;;;;;20.00;81.96;100044.09;1714974;82;20921;-39
2021/06/27 02:51:52;;;;;;;4.58;2.33;;;;;;;20.02;82.26;100041.38;1713502;82;21295;-40
2021/06/27 02:54:18;;;;;;;12.73;2.35;;;;;;;20.05;82.41;100035.44;1711452;82;20951;-40
2021/06/27 02:56:45;;;;;;;5.80;2.33;;;;;;;20.10;82.23;100033.37;1711021;83;21019;-39
2021/06/27 02:59:11;;;;;;;8.15;2.50;;;;;;;20.16;81.98;100023.41;1714923;83;20959;-39
2021/06/27 03:01:38;;;;;;;4.25;2.58;;;;;;;20.23;81.95;100025.53;1712724;82;21066;-40
2021/06/27 03:04:06;;;;;;;8.98;2.05;;;;;;;20.32;81.62;100026.68;1713563;83;21887;-39
2021/06/27 03:06:32;;;;;;;14.30;2.52;;;;;;;20.39;81.21;100020.09;1712213;83;20952;-39
2021/06/27 03:09:00;;;;;;;12.63;2.40;;;;;;;20.48;80.95;100021.27;1713947;82;21076;-39
2021/06/27 03:11:27;;;;;;;4.83;2.40;;;;;;;20.58;80.76;100018.84;1713544;82;21034;-40
2021/06/27 03:13:53;;;;;;;10.35;2.70;;;;;;;20.71;80.49;100012.77;1711059;82;21048;-39
2021/06/27 03:16:20;;;;;;;11.93;2.35;;;;;;;20.83;80.19;100010.63;1715357;82;21964;-41
2021/06/27 03:18:46;;;;;;;8.98;3.58;;;;;;;20.94;79.88;100005.48;1696648;83;20971;-40
2021/06/27 03:21:13;;;;;;;5.97;2.95;;;;;;;21.07;79.60;100006.78;1711384;82;21537;-39
2021/06/27 03:23:40;;;;;;;12.80;4.70;;;;;;;21.17;79.14;100006.98;1716144;82;21684;-41
2021/06/27 03:26:07;;;;;;;6.92;4.05;;;;;;;21.24;78.95;100001.65;1715882;82;20988;-40
2021/06/27 03:28:36;;;;;;;8.10;4.42;;;;;;;21.34;78.56;99997.89;1712988;83;21146;-39
2021/06/27 03:31:02;;;;;;;7.28;4.12;;;;;;;21.48;78.44;99992.13;1712321;82;21014;-40
2021/06/27 03:33:29;;;;;;;12.95;4.37;;;;;;;21.60;77.89;99991.23;1716226;83;20983;-40
2021/06/27 03:35:55;;;;;;;11.12;3.75;;;;;;;21.70;77.71;99990.12;1710588;83;20956;-39
2021/06/27 03:38:34;;;;;;;3.90;3.27;;;;;;;21.85;77.56;99992.58;1714743;82;20984;-39
2021/06/27 03:40:53;;;;;;;20.52;7.58;;;;;;;21.96;76.89;99988.20;1711870;83;21176;-39
2021/06/27 03:43:20;;;;;;;16.35;7.55;;;;;;;22.05;76.40;99986.68;1712745;82;21290;-41
2021/06/27 03:45:46;;;;;;;10.10;3.92;;;;;;;22.14;76.22;99989.11;1713575;83;21027;-40
2021/06/27 03:48:13;;;;;;;4.37;2.90;;;;;;;22.22;75.99;99981.95;1712040;83;21004;-41
2021/06/27 03:50:40;;;;;;;12.73;3.50;;;;;;;22.26;75.76;99978.13;1711600;83;21010;-40
2021/06/27 03:53:06;;;;;;;12.63;7.25;;;;;;;22.31;75.83;99972.02;1710351;82;21146;-41
2021/06/27 03:55:33;;;;;;;15.35;8.63;;;;;;;22.49;75.94;99975.58;1714201;82;20995;-41
2021/06/27 03:57:59;;;;;;;13.13;6.30;;;;;;;22.70;75.48;99968.30;1715395;83;21050;-40
2021/06/27 04:00:25;;;;;;;12.28;5.70;;;;;;;22.90;74.74;99966.73;1711508;83;20936;-40
2021/06/27 04:02:52;;;;;;;15.60;6.05;;;;;;;23.03;74.46;99962.66;1714156;83;20904;-40
2021/06/27 04:05:18;;;;;;;20.85;6.95;;;;;;;23.17;73.59;99956.28;1713122;82;21118;-40
2021/06/27 04:07:45;;;;;;;11.20;5.47;;;;;;;23.23;73.15;99948.72;1713661;82;21524;-40
2021/06/27 04:10:12;;;;;;;13.58;6.80;;;;;;;23.30;73.06;99948.25;1712317;83;21469;-40
2021/06/27 04:12:38;;;;;;;17.42;6.67;;;;;;;23.39;72.64;99947.53;1713239;82;20976;-40
2021/06/27 04:15:08;;;;;;;17.02;6.55;;;;;;;23.53;72.76;99944.59;1714187;83;20951;-39
2021/06/27 04:17:35;;;;;;;11.35;5.85;;;;;;;23.72;72.16;99955.45;1710864;83;21139;-40
2021/06/27 04:20:08;;;;;;;7.65;4.40;;;;;;;23.88;71.69;99947.13;1712533;83;20967;-39
2021/06/27 04:22:35;;;;;;;7.00;3.77;;;;;;;23.96;70.94;99944.67;1712714;83;21044;-40
2021/06/27 04:25:03;;;;;;;10.32;3.62;;;;;;;23.98;70.35;99945.38;1712518;82;21018;-39
2021/06/27 04:27:30;;;;;;;6.35;3.62;;;;;;;23.99;70.42;99936.95;1714850;83;21014;-40
2021/06/27 04:29:57;;;;;;;7.53;3.20;;;;;;;24.01;70.51;99933.27;1715834;83;21070;-40
2021/06/27 04:32:24;;;;;;;10.63;4.15;;;;;;;24.04;70.76;99943.58;1714382;83;20984;-39
2021/06/27 04:34:51;;;;;;;11.83;4.12;;;;;;;24.07;70.71;99938.53;1714027;82;20952;-40
2021/06/27 04:37:18;;;;;;;10.85;4.10;;;;;;;24.13;70.23;99940.65;1712831;82;21055;-40
2021/06/27 04:39:45;;;;;;;5.53;3.50;;;;;;;24.11;70.20;99935.47;1711261;83;21058;-39
2021/06/27 04:42:11;;;;;;;14.85;3.77;;;;;;;24.20;70.94;99938.33;1712981;83;21123;-40
2021/06/27 04:44:38;;;;;;;13.25;4.03;;;;;;;24.31;70.55;99935.60;1713450;83;21532;-40
2021/06/27 04:47:05;;;;;;;13.25;3.90;;;;;;;24.46;70.15;99930.81;1710475;82;21510;-41
2021/06/27 04:49:31;;;;;;;17.32;4.08;;;;;;;24.58;69.11;99932.89;1713042;82;20987;-41
2021/06/27 04:51:58;;;;;;;16.95;4.72;;;;;;;24.68;68.69;99934.26;1711652;82;20992;-41
2021/06/27 04:54:24;;;;;;;19.27;3.80;;;;;;;24.77;68.43;99938.80;1713136;83;21146;-41
2021/06/27 04:56:51;;;;;;;12.75;4.10;;;;;;;24.87;68.65;99941.46;1712121;82;21018;-40
2021/06/27 04:59:17;;;;;;;27.07;5.20;;;;;;;24.96;68.37;99942.47;1713231;82;20968;-39
2021/06/27 05:01:45;;;;;;;15.23;4.70;;;;;;;25.06;68.13;99939.86;1712473;83;21007;-40
2021/06/27 05:04:12;;;;;;;11.38;4.12;;;;;;;25.15;67.81;99933.77;1710578;83;20998;-40
2021/06/27 05:06:38;;;;;;;24.55;4.97;;;;;;;25.27;67.33;99934.96;1713019;83;21144;-40
2021/06/27 05:09:05;;;;;;;26.45;5.30;;;;;;;25.38;67.11;99936.16;1711333;83;20948;-40
2021/06/27 05:11:33;;;;;;;19.85;4.40;;;;;;;25.51;66.72;99935.92;1713895;82;20971;-40
2021/06/27 05:13:59;;;;;;;10.18;4.17;;;;;;;25.57;66.69;99935.39;1712265;82;21111;-40
2021/06/27 05:16:26;;;;;;;18.57;4.58;;;;;;;25.66;66.51;99933.22;1712997;83;21027;-40
2021/06/27 05:18:54;;;;;;;13.35;4.83;;;;;;;25.74;65.61;99933.85;1710686;82;20999;-40
2021/06/27 05:21:21;;;;;;;16.52;4.97;;;;;;;25.87;65.73;99926.09;1710775;83;20983;-40
2021/06/27 05:23:47;;;;;;;14.30;4.60;;;;;;;26.18;65.68;99927.29;1712834;82;20967;-40
2021/06/27 05:26:14;;;;;;;9.98;3.33;;;;;;;26.61;64.96;99924.55;1710992;83;20952;-40
2021/06/27 05:28:40;;;;;;;21.15;4.05;;;;;;;27.11;62.44;99915.89;1693994;83;21015;-41
2021/06/27 05:31:07;;;;;;;14.55;3.52;;;;;;;27.59;60.47;99912.59;1711486;83;21086;-41
2021/06/27 05:33:33;;;;;;;14.00;3.00;;;;;;;28.09;58.93;99915.12;1713431;82;21568;-40
2021/06/27 05:35:59;;;;;;;4.65;2.80;;;;;;;28.56;57.61;99909.61;1713167;82;21588;-40
2021/06/27 05:38:26;;;;;;;13.80;3.22;;;;;;;28.95;55.46;99905.12;1712532;82;21585;-40
2021/06/27 05:40:53;;;;;;;16.73;3.50;;;;;;;29.30;54.39;99906.36;1713451;83;21591;-40
2021/06/27 05:43:20;;;;;;;23.62;3.70;;;;;;;29.57;53.34;99906.60;1711498;83;21970;-40
2021/06/27 05:45:47;;;;;;;22.98;3.40;;;;;;;29.77;52.47;99912.42;1714029;83;20992;-40
2021/06/27 05:48:13;;;;;;;25.50;3.65;;;;;;;29.96;51.71;99909.08;1712540;83;20976;-40
2021/06/27 05:50:40;;;;;;;29.90;3.12;;;;;;;30.02;50.98;99904.43;1712267;83;20987;-41
2021/06/27 05:53:06;;;;;;;19.20;3.27;;;;;;;30.16;51.02;99902.91;1714147;82;20979;-40
2021/06/27 05:55:32;;;;;;;12.47;3.42;;;;;;;30.37;50.32;99905.01;1713137;82;21491;-40
2021/06/27 05:57:59;;;;;;;17.17;3.10;;;;;;;30.61;49.90;99909.15;1714308;82;21003;-41
2021/06/27 06:00:25;;;;;;;12.20;3.90;;;;;;;30.87;50.38;99908.84;1712067;83;20900;-40
2021/06/27 06:02:51;;;;;;;12.82;2.77;;;;;;;31.08;50.43;99915.42;1713701;83;20963;-40
2021/06/27 06:05:18;;;;;;;20.12;3.05;;;;;;;31.19;48.89;99901.67;1712158;82;20975;-40
2021/06/27 06:07:44;;;;;;;14.10;3.00;;;;;;;31.41;48.60;99897.84;1713261;83;21548;-40
2021/06/27 06:10:11;;;;;;;10.32;3.35;;;;;;;31.63;48.67;99898.86;1713980;82;21489;-42
2021/06/27 06:12:39;;;;;;;11.70;2.90;;;;;;;31.50;47.52;99903.97;1713886;82;21502;-40
2021/06/27 06:15:07;;;;;;;19.85;2.77;;;;;;;30.96;48.92;99907.81;1710420;83;21369;-40
2021/06/27 06:17:35;;;;;;;20.48;2.80;;;;;;;30.73;50.61;99917.61;1711252;83;20936;-40
2021/06/27 06:20:02;;;;;;;36.25;3.17;;;;;;;30.82;50.18;99917.89;1713193;82;21131;-40
2021/06/27 06:22:29;;;;;;;19.17;3.42;;;;;;;30.89;50.47;99916.70;1713403;82;20991;-41
2021/06/27 06:24:55;;;;;;;30.55;3.90;;;;;;;30.73;50.67;99921.62;1714466;83;20892;-40
2021/06/27 06:27:22;;;;;;;35.55;3.50;;;;;;;30.42;51.59;99923.67;1713171;83;21011;-40
2021/06/27 06:29:48;;;;;;;20.08;3.77;;;;;;;30.14;52.39;99917.41;1711762;82;21574;-41
2021/06/27 06:32:15;;;;;;;23.02;4.65;;;;;;;30.06;53.42;99909.75;1709689;82;21983;-40
2021/06/27 06:34:41;;;;;;;39.95;4.37;;;;;;;30.09;53.35;99913.41;1651263;85;21514;-40
2021/06/27 06:37:08;;;;;;;21.85;3.00;;;;;;;30.00;53.00;99907.74;1649342;85;21025;-41
2021/06/27 06:39:34;;;;;;;23.38;3.50;;;;;;;30.02;52.49;99907.58;1649648;85;21578;-41
2021/06/27 06:42:03;;;;;;;19.77;2.83;;;;;;;30.08;52.31;99913.08;1652173;85;21502;-41
2021/06/27 06:44:29;;;;;;;24.92;3.50;;;;;;;30.00;51.44;99907.74;1714875;82;21930;-41
2021/06/27 06:46:56;;;;;;;13.22;3.52;;;;;;;29.92;51.80;99907.73;1712125;82;21034;-41
2021/06/27 06:49:23;;;;;;;52.90;5.65;;;;;;;29.95;52.57;99912.23;1713724;82;21412;-41
2021/06/27 06:51:49;;;;;;;32.75;4.55;;;;;;;30.11;50.89;99920.74;1715261;82;21056;-41
2021/06/27 06:54:17;;;;;;;47.83;4.85;;;;;;;30.01;50.71;99916.10;1713850;83;20967;-41
2021/06/27 06:56:43;;;;;;;13.62;3.50;;;;;;;29.87;50.54;99918.08;1714451;82;22221;-41
2021/06/27 06:59:10;;;;;;;13.45;3.27;;;;;;;29.86;51.19;99920.41;1717182;81;21472;-40
2021/06/27 07:01:36;;;;;;;14.50;3.40;;;;;;;29.96;51.36;99921.91;1712383;82;21617;-40
2021/06/27 07:04:03;;;;;;;15.63;3.10;;;;;;;30.09;49.90;99927.27;1715052;82;21738;-41
2021/06/27 07:06:30;;;;;;;11.35;2.72;;;;;;;30.15;51.12;99925.73;1712865;83;21029;-40
2021/06/27 07:08:57;;;;;;;17.17;3.50;;;;;;;30.24;50.22;99929.56;1712827;83;21138;-41
2021/06/27 07:11:23;;;;;;;21.60;3.10;;;;;;;30.38;49.92;99930.69;1711825;82;21023;-41
2021/06/27 07:13:49;;;;;;;70.50;5.30;;;;;;;30.47;48.28;99938.70;1707494;82;20995;-40
2021/06/27 07:16:16;;;;;;;22.85;3.72;;;;;;;30.50;47.75;99930.34;1711600;83;21039;-40
2021/06/27 07:18:43;;;;;;;12.33;3.15;;;;;;;30.53;48.34;99930.81;1713396;83;20968;-40
2021/06/27 07:21:10;;;;;;;6.53;3.17;;;;;;;30.43;47.46;99935.53;1713235;82;21162;-41
2021/06/27 07:23:36;;;;;;;6.87;2.90;;;;;;;30.36;48.48;99936.70;1712007;83;21019;-41
2021/06/27 07:26:02;;;;;;;6.72;2.42;;;;;;;30.47;46.67;99945.38;1712938;82;20944;-41
2021/06/27 07:28:31;;;;;;;6.05;2.58;;;;;;;30.36;46.94;99943.89;1712089;83;20935;-41
2021/06/27 07:30:58;;;;;;;5.28;3.12;;;;;;;30.38;47.29;99942.70;1717782;83;20986;-41
2021/06/27 07:33:25;;;;;;;9.30;3.02;;;;;;;30.49;47.40;99943.36;1714060;83;21084;-41
2021/06/27 07:35:52;;;;;;;5.80;2.40;;;;;;;30.66;46.36;99944.98;1711670;82;21568;-41
2021/06/27 07:38:18;;;;;;;26.95;3.02;;;;;;;30.67;44.91;99953.84;1710885;82;21506;-41
2021/06/27 07:40:44;;;;;;;7.42;2.50;;;;;;;30.75;45.64;99962.33;1711829;83;21434;-41
2021/06/27 07:43:11;;;;;;;42.58;4.80;;;;;;;30.89;44.54;99960.25;1714896;83;20999;-41
2021/06/27 07:45:38;;;;;;;65.22;6.37;;;;;;;30.93;44.33;99965.57;1712520;83;21033;-40
2021/06/27 07:48:06;;;;;;;22.37;2.98;;;;;;;31.01;44.96;99967.89;1715133;83;21078;-41
2021/06/27 07:50:33;;;;;;;7.65;2.80;;;;;;;31.03;44.51;99968.55;1712510;82;20987;-42
2021/06/27 07:52:59;;;;;;;18.70;3.25;;;;;;;31.00;43.96;99980.41;1711743;82;21066;-40
2021/06/27 07:55:25;;;;;;;55.23;5.45;;;;;;;31.06;43.88;99978.37;1712535;82;21663;-40
2021/06/27 07:57:52;;;;;;;42.20;5.17;;;;;;;31.31;42.44;99984.13;1714009;82;21139;-40
2021/06/27 08:00:20;;;;;;;36.90;4.60;;;;;;;31.37;44.75;99986.09;1711965;82;21011;-40
2021/06/27 08:02:47;;;;;;;14.87;3.37;;;;;;;31.53;46.12;99990.02;1712181;83;21039;-40
2021/06/27 08:05:14;;;;;;;46.20;5.78;;;;;;;31.28;47.32;99985.83;1711223;83;21378;-41
2021/06/27 08:07:41;;;;;;;73.37;6.47;;;;;;;30.53;48.91;99988.73;1714066;82;21019;-41
2021/06/27 08:10:09;;;;;;;39.85;5.03;;;;;;;30.18;51.10;99986.77;1712970;82;21131;-41
2021/06/27 08:12:36;;;;;;;31.68;5.45;;;;;;;30.01;52.20;99990.80;1713223;83;20939;-40
2021/06/27 08:15:06;;;;;;;36.00;5.35;;;;;;;29.75;52.90;99985.09;1711036;83;21019;-41
2021/06/27 08:17:33;;;;;;;71.17;6.75;;;;;;;29.53;53.18;99994.05;1710881;83;21578;-41
2021/06/27 08:19:59;;;;;;;29.40;5.97;;;;;;;29.30;54.11;99991.63;1713316;83;21560;-41
2021/06/27 08:22:26;;;;;;;73.87;7.12;;;;;;;29.35;53.77;99986.16;1713392;82;21836;-40
2021/06/27 08:24:52;;;;;;;39.25;6.37;;;;;;;29.35;54.54;99992.82;1715063;82;21599;-41
2021/06/27 08:27:19;;;;;;;42.33;5.65;;;;;;;29.46;55.60;99986.86;1708345;83;21517;-41
2021/06/27 08:29:45;;;;;;;48.28;5.90;;;;;;;29.72;54.58;99981.42;1710193;82;21493;-40
2021/06/27 08:32:11;;;;;;;14.73;5.03;;;;;;;29.68;54.12;99988.91;1712426;83;21465;-41
2021/06/27 08:34:38;;;;;;;24.55;5.83;;;;;;;29.48;53.67;99991.53;1714097;83;21879;-41
2021/06/27 08:37:04;;;;;;;20.27;5.15;;;;;;;29.29;55.02;99989.96;1712819;82;21583;-41
2021/06/27 08:39:31;;;;;;;12.50;4.95;;;;;;;29.22;54.89;99986.62;1697347;83;21078;-39
2021/06/27 08:41:59;;;;;;;27.95;5.47;;;;;;;29.31;55.35;99986.63;1716180;82;21019;-40
2021/06/27 08:44:25;;;;;;;56.00;6.05;;;;;;;29.35;54.87;99983.48;1712379;82;21008;-41
2021/06/27 08:46:52;;;;;;;29.80;5.47;;;;;;;29.56;55.78;99981.39;1711866;83;21146;-40
2021/06/27 08:49:19;;;;;;;12.40;5.22;;;;;;;29.92;54.49;99975.73;1712887;82;21500;-40
2021/06/27 08:51:46;;;;;;;11.83;3.90;;;;;;;30.17;50.72;99979.27;1712076;83;21546;-41
2021/06/27 08:54:13;;;;;;;8.55;3.98;;;;;;;30.44;50.72;99981.72;1711797;82;21226;-41
2021/06/27 08:56:40;;;;;;;23.30;4.85;;;;;;;30.72;50.42;99984.05;1712990;83;20983;-40
2021/06/27 08:59:07;;;;;;;22.55;5.30;;;;;;;31.15;49.50;99980.50;1714463;82;21148;-41
2021/06/27 09:01:33;;;;;;;24.60;4.87;;;;;;;31.58;47.93;99976.13;1711267;82;21541;-41
2021/06/27 09:04:01;;;;;;;18.35;3.65;;;;;;;31.63;48.49;99975.56;1713988;82;20944;-41
2021/06/27 09:06:31;;;;;;;18.17;3.58;;;;;;;31.79;46.57;99975.97;1711050;82;20990;-41
2021/06/27 09:09:20;;;;;;;15.80;4.05;;;;;;;32.13;47.48;99980.54;1712438;83;20951;-40
2021/06/27 09:12:06;;;;;;;32.83;4.42;;;;;;;32.13;47.07;99969.84;1713296;83;20944;-41
2021/06/27 09:14:43;;;;;;;11.57;2.87;;;;;;;32.36;46.63;99961.27;1714824;83;21031;-41
2021/06/27 09:17:18;;;;;;;5.90;2.35;;;;;;;32.88;42.44;99965.91;1717148;83;21576;-41
2021/06/27 09:20:01;;;;;;;4.35;2.35;;;;;;;33.21;40.88;99968.14;1711838;83;21032;-41
2021/06/27 09:22:33;;;;;;;5.87;2.50;;;;;;;33.35;40.34;99963.75;1711117;82;21004;-40
2021/06/27 09:25:23;;;;;;;7.15;5.37;;;;;;;33.34;40.79;99960.23;1713368;82;21134;-40
2021/06/27 09:28:05;;;;;;;5.37;3.10;;;;;;;33.55;40.74;99953.78;1713065;83;21497;-40
2021/06/27 09:30:37;;;;;;;10.48;2.17;;;;;;;33.73;41.39;99960.02;1715416;83;20996;-41
2021/06/27 09:33:16;;;;;;;8.58;2.00;;;;;;;33.70;39.97;99958.54;1708953;83;20981;-41
2021/06/27 09:35:50;;;;;;;5.67;2.60;;;;;;;33.91;39.32;99950.16;1713798;82;21607;-41
2021/06/27 09:38:29;;;;;;;4.10;2.70;;;;;;;34.23;39.72;99961.34;1713444;82;21884;-41
2021/06/27 09:41:03;;;;;;;4.17;2.20;;;;;;;34.43;39.68;99964.18;1714771;82;22099;-41
2021/06/27 09:43:32;;;;;;;2.55;1.90;;;;;;;34.68;40.12;99958.34;1702063;82;21130;-42
2021/06/27 09:46:10;;;;;;;2.85;1.95;;;;;;;34.45;38.42;99958.59;1716068;83;21065;-42
2021/06/27 09:48:31;;;;;;;7.83;2.10;;;;;;;34.14;38.57;99961.19;1712992;82;21079;-41
2021/06/27 09:50:58;;;;;;;7.95;2.52;;;;;;;34.13;38.29;99960.88;1707811;83;21198;-42
2021/06/27 09:56:37;;;;;;;13.22;2.62;;;;;;;34.52;38.40;99960.33;1797618;79;23142;-41
2021/06/27 09:59:13;;;;;;;6.03;2.83;;;;;;;34.48;39.05;99958.19;1757431;81;21074;-40
2021/06/27 10:01:40;;;;;;;3.60;2.10;;;;;;;34.47;38.79;99968.63;1756529;81;21228;-41
2021/06/27 10:04:13;;;;;;;7.55;2.60;;;;;;;34.14;39.22;99962.04;1757261;81;21014;-41
2021/06/27 10:06:51;;;;;;;13.22;3.00;;;;;;;33.78;40.14;99967.81;1724055;82;21579;-41
2021/06/27 10:09:22;;;;;;;8.98;2.90;;;;;;;33.61;40.57;99969.09;1723831;83;21025;-40
2021/06/27 10:12:12;;;;;;;7.12;3.05;;;;;;;33.61;40.86;99974.46;1724097;83;20951;-40
2021/06/27 10:14:53;;;;;;;13.35;2.92;;;;;;;33.42;41.99;99978.08;1723923;83;21898;-41
2021/06/27 10:17:24;;;;;;;11.35;2.75;;;;;;;33.48;42.73;99980.52;1723884;83;20903;-41
2021/06/27 10:19:52;;;;;;;6.65;2.58;;;;;;;33.79;41.02;99978.87;1723863;83;20935;-41
2021/06/27 10:22:21;;;;;;;12.60;3.65;;;;;;;33.76;41.78;99981.94;1723772;83;21543;-41
2021/06/27 10:24:48;;;;;;;8.73;3.15;;;;;;;33.65;43.03;99983.28;1724044;83;20939;-41
2021/06/27 10:27:14;;;;;;;13.60;3.30;;;;;;;33.58;42.77;99982.36;1723766;83;21135;-41
2021/06/27 10:29:43;;;;;;;11.95;3.80;;;;;;;33.66;42.66;99981.41;1723862;83;20986;-40
2021/06/27 10:32:11;;;;;;;8.60;3.40;;;;;;;33.74;42.95;99980.45;1724135;83;20974;-40
2021/06/27 10:34:38;;;;;;;9.08;3.77;;;;;;;33.70;43.15;99977.84;1723841;83;21481;-40
2021/06/27 10:37:20;;;;;;;7.15;3.67;;;;;;;33.73;43.19;99982.82;1723100;83;20956;-40
2021/06/27 10:40:00;;;;;;;6.45;3.90;;;;;;;33.75;42.05;99980.28;1691008;84;21204;-39
2021/06/27 10:42:59;;;;;;;8.13;3.87;;;;;;;33.65;44.10;99979.75;1698025;84;21035;-41
2021/06/27 10:45:34;;;;;;;9.95;3.72;;;;;;;33.77;44.41;99979.57;1697838;84;20960;-40
2021/06/27 10:48:02;;;;;;;28.45;4.00;;;;;;;33.65;42.06;99980.59;1681183;84;23001;-40
2021/06/27 10:50:53;;;;;;;11.00;3.40;;;;;;;33.21;42.85;99981.02;1715947;83;20998;-41
2021/06/27 10:53:21;;;;;;;15.45;3.87;;;;;;;32.79;44.05;99975.87;1708476;84;21169;-41
2021/06/27 10:55:47;;;;;;;14.80;4.58;;;;;;;32.43;44.87;99968.06;1701340;83;21052;-41
2021/06/27 10:58:15;;;;;;;7.08;3.58;;;;;;;32.11;45.02;99968.70;1695865;84;20916;-41
2021/06/27 11:00:56;;;;;;;10.32;3.80;;;;;;;32.00;45.26;99963.77;1695940;83;21628;-41
2021/06/27 11:03:34;;;;;;;16.32;4.67;;;;;;;31.94;45.09;99950.59;1695917;83;20976;-40
2021/06/27 11:06:04;;;;;;;15.70;3.50;;;;;;;31.71;45.82;99954.13;1695700;84;21568;-40
2021/06/27 11:08:42;;;;;;;17.10;4.28;;;;;;;31.68;45.07;99948.63;1695059;84;20929;-40
2021/06/27 11:11:18;;;;;;;15.28;6.42;;;;;;;31.81;45.49;99951.21;1695244;84;20964;-41
2021/06/27 11:14:14;;;;;;;10.43;4.35;;;;;;;31.86;45.94;99946.67;1695611;84;21008;-41
2021/06/27 11:17:04;;;;;;;26.73;5.03;;;;;;;31.97;46.83;99944.91;1695409;84;21011;-40
2021/06/27 11:19:40;;;;;;;6.28;3.60;;;;;;;32.10;45.14;99945.11;1685928;84;21125;-41
2021/06/27 11:22:19;;;;;;;8.23;3.98;;;;;;;32.25;45.91;99938.43;1695247;84;20964;-40
2021/06/27 11:24:47;;;;;;;8.45;3.67;;;;;;;32.32;44.32;99939.91;1695582;84;21011;-41
2021/06/27 11:27:35;;;;;;;12.90;2.90;;;;;;;32.26;44.06;99943.29;1695287;84;21007;-41
2021/06/27 11:30:27;;;;;;;7.85;3.25;;;;;;;32.31;44.68;99934.69;1695560;84;21043;-41
2021/06/27 11:32:54;;;;;;;9.00;4.67;;;;;;;32.37;44.00;99921.96;1695350;84;21146;-41
2021/06/27 11:35:40;;;;;;;7.00;3.65;;;;;;;32.35;45.25;99923.47;1695232;84;20980;-40
2021/06/27 11:38:06;;;;;;;4.40;3.22;;;;;;;32.39;44.63;99924.75;1695373;84;20967;-40